createdAt,value
2018-05-12T00:00:49.904Z,12.37
2018-05-12T00:03:17.376Z,12.00
2018-05-12T00:05:44.995Z,11.50
2018-05-12T00:08:12.413Z,11.83
2018-05-12T00:10:39.889Z,11.40
2018-05-12T00:13:07.463Z,11.57
2018-05-12T00:15:34.930Z,11.57
2018-05-12T00:18:02.392Z,11.57
2018-05-12T00:20:29.867Z,11.95
2018-05-12T00:22:57.392Z,11.45
2018-05-12T00:25:24.900Z,12.10
2018-05-12T00:27:52.411Z,11.50
2018-05-12T00:30:20.649Z,11.90
2018-05-12T00:32:48.124Z,12.25
2018-05-12T00:35:15.580Z,11.55
2018-05-12T00:37:43.099Z,11.90
2018-05-12T00:40:10.560Z,11.27
2018-05-12T00:42:38.034Z,12.50
2018-05-12T00:45:05.695Z,12.13
2018-05-12T00:47:33.264Z,11.55
2018-05-12T00:50:00.851Z,11.88
2018-05-12T00:52:28.414Z,11.48
2018-05-12T00:54:55.989Z,11.95
2018-05-12T00:57:23.554Z,11.90
2018-05-12T00:59:51.120Z,12.27
2018-05-12T01:02:18.702Z,12.80
2018-05-12T01:04:46.328Z,11.80
2018-05-12T01:07:13.768Z,11.30
2018-05-12T01:09:42.024Z,12.05
2018-05-12T01:12:09.488Z,12.13
2018-05-12T01:14:36.954Z,11.80
2018-05-12T01:17:04.443Z,12.10
2018-05-12T01:19:31.915Z,11.52
2018-05-12T01:21:59.364Z,12.15
2018-05-12T01:24:26.850Z,12.23
2018-05-12T01:26:54.335Z,12.63
2018-05-12T01:29:21.892Z,12.30
2018-05-12T01:31:49.377Z,11.90
2018-05-12T01:34:16.858Z,12.32
2018-05-12T01:36:44.316Z,12.20
2018-05-12T01:39:11.905Z,13.00
2018-05-12T01:41:39.376Z,12.70
2018-05-12T01:44:06.909Z,12.90
2018-05-12T01:46:34.388Z,12.60
2018-05-12T01:49:01.966Z,12.50
2018-05-12T01:51:29.425Z,12.48
2018-05-12T01:53:56.919Z,12.48
2018-05-12T01:56:24.398Z,13.32
2018-05-12T01:58:51.844Z,12.98
2018-05-12T02:01:19.418Z,13.35
2018-05-12T02:03:47.000Z,12.23
2018-05-12T02:06:14.561Z,13.15
2018-05-12T02:08:42.135Z,12.70
2018-05-12T02:11:09.708Z,13.00
2018-05-12T02:13:37.181Z,12.32
2018-05-12T02:16:04.650Z,12.50
2018-05-12T02:18:32.204Z,13.05
2018-05-12T02:20:59.674Z,13.10
2018-05-12T02:23:27.132Z,12.80
2018-05-12T02:25:54.616Z,13.10
2018-05-12T02:28:22.087Z,13.10
2018-05-12T02:30:49.564Z,13.65
2018-05-12T02:33:17.031Z,13.30
2018-05-12T02:35:44.500Z,12.25
2018-05-12T02:38:12.087Z,13.38
2018-05-12T02:40:39.641Z,13.70
2018-05-12T02:43:07.135Z,12.82
2018-05-12T02:45:34.607Z,13.60
2018-05-12T02:48:03.573Z,13.35
2018-05-12T02:50:31.070Z,13.02
2018-05-12T02:52:58.727Z,14.23
2018-05-12T02:55:26.126Z,14.30
2018-05-12T02:57:53.598Z,13.37
2018-05-12T03:00:21.067Z,14.35
2018-05-12T03:02:48.513Z,15.50
2018-05-12T03:05:16.088Z,14.93
2018-05-12T03:07:43.554Z,15.47
2018-05-12T03:10:11.023Z,14.73
2018-05-12T03:12:38.480Z,14.90
2018-05-12T03:15:05.960Z,15.07
2018-05-12T03:17:33.596Z,15.25
2018-05-12T03:20:01.067Z,15.20
2018-05-12T03:22:28.589Z,15.35
2018-05-12T03:24:56.145Z,15.65
2018-05-12T03:27:23.612Z,15.82
2018-05-12T03:29:51.068Z,15.57
2018-05-12T03:32:18.580Z,15.30
2018-05-12T03:34:46.039Z,16.37
2018-05-12T03:37:13.502Z,15.60
2018-05-12T03:39:41.065Z,15.98
2018-05-12T03:42:08.530Z,15.63
2018-05-12T03:44:36.015Z,15.70
2018-05-12T03:47:03.639Z,16.23
2018-05-12T03:49:31.115Z,16.70
2018-05-12T03:51:58.570Z,17.87
2018-05-12T03:54:26.105Z,17.40
2018-05-12T03:56:53.664Z,17.77
2018-05-12T03:59:21.116Z,18.27
2018-05-12T04:01:48.622Z,17.65
2018-05-12T04:04:28.967Z,18.80
2018-05-12T04:07:08.488Z,19.30
2018-05-12T04:12:39.795Z,17.70
2018-05-12T04:15:07.258Z,17.40
2018-05-12T04:17:34.716Z,17.40
2018-05-12T04:20:03.011Z,17.45
2018-05-12T04:22:31.230Z,18.25
2018-05-12T04:24:58.687Z,17.67
2018-05-12T04:27:26.190Z,17.47
2018-05-12T04:29:53.639Z,18.08
2018-05-12T04:32:21.112Z,18.98
2018-05-12T04:34:48.684Z,17.92
2018-05-12T04:37:16.266Z,18.95
2018-05-12T04:39:43.726Z,18.27
2018-05-12T04:42:11.207Z,19.08
2018-05-12T04:44:38.655Z,19.27
2018-05-12T04:47:06.149Z,19.23
2018-05-12T04:49:33.629Z,18.92
2018-05-12T04:52:01.084Z,19.00
2018-05-12T04:54:28.532Z,20.33
2018-05-12T04:56:56.027Z,19.27
2018-05-12T04:59:23.599Z,18.42
2018-05-12T05:01:51.090Z,18.87
2018-05-12T05:04:18.632Z,18.87
2018-05-12T05:06:46.096Z,18.80
2018-05-12T05:09:13.566Z,19.15
2018-05-12T05:11:41.132Z,18.60
2018-05-12T05:14:08.630Z,18.77
2018-05-12T05:16:36.183Z,19.80
2018-05-12T05:19:03.768Z,19.05
2018-05-12T05:21:31.237Z,19.42
2018-05-12T05:23:58.676Z,19.37
2018-05-12T05:26:26.186Z,19.10
2018-05-12T05:28:53.628Z,19.50
2018-05-12T05:31:21.090Z,19.40
2018-05-12T05:33:48.541Z,18.48
2018-05-12T05:36:15.992Z,19.80
2018-05-12T05:38:44.224Z,18.12
2018-05-12T05:41:11.693Z,18.98
2018-05-12T05:43:39.171Z,18.60
2018-05-12T05:46:06.639Z,18.70
2018-05-12T05:48:34.115Z,17.83
2018-05-12T05:51:01.596Z,17.85
2018-05-12T05:53:29.148Z,17.10
2018-05-12T05:55:56.616Z,17.55
2018-05-12T05:58:24.099Z,17.58
2018-05-12T06:00:51.653Z,17.80
2018-05-12T06:03:19.143Z,17.40
2018-05-12T06:05:46.588Z,18.00
2018-05-12T06:08:14.031Z,17.30
2018-05-12T06:10:41.566Z,17.12
2018-05-12T06:13:09.116Z,17.47
2018-05-12T06:15:36.556Z,16.95
2018-05-12T06:18:04.083Z,17.77
2018-05-12T06:20:31.518Z,16.48
2018-05-12T06:22:58.999Z,16.75
2018-05-12T06:25:26.457Z,17.77
2018-05-12T06:27:54.048Z,15.75
2018-05-12T06:30:21.499Z,15.73
2018-05-12T06:32:48.983Z,15.80
2018-05-12T06:35:16.430Z,16.05
2018-05-12T06:37:43.935Z,15.48
2018-05-12T06:40:11.556Z,16.87
2018-05-12T06:42:39.065Z,16.12
2018-05-12T06:45:06.540Z,16.30
2018-05-12T06:47:34.002Z,17.08
2018-05-12T06:50:01.561Z,15.38
2018-05-12T06:52:29.013Z,15.82
2018-05-12T06:54:56.546Z,15.60
2018-05-12T06:57:24.088Z,15.98
2018-05-12T06:59:51.645Z,15.82
2018-05-12T07:02:19.120Z,16.73
2018-05-12T07:04:46.567Z,14.80
2018-05-12T07:07:14.029Z,15.67
2018-05-12T07:09:41.548Z,15.52
2018-05-12T07:12:09.011Z,15.55
2018-05-12T07:14:36.498Z,15.20
2018-05-12T07:17:04.045Z,15.10
2018-05-12T07:19:31.555Z,16.25
2018-05-12T07:21:59.097Z,14.32
2018-05-12T07:24:27.717Z,15.40
2018-05-12T07:26:55.175Z,15.73
2018-05-12T07:29:22.638Z,15.13
2018-05-12T07:31:50.107Z,14.30
2018-05-12T07:34:17.584Z,16.12
2018-05-12T07:36:45.052Z,15.20
2018-05-12T07:39:12.632Z,15.35
2018-05-12T07:41:40.190Z,15.40
2018-05-12T07:44:07.760Z,14.70
2018-05-12T07:46:35.225Z,15.10
2018-05-12T07:49:02.686Z,14.67
2018-05-12T07:51:30.221Z,14.82
2018-05-12T07:53:57.743Z,14.20
2018-05-12T07:56:25.208Z,14.20
2018-05-12T07:58:52.676Z,12.93
2018-05-12T08:01:20.147Z,13.85
2018-05-12T08:03:47.610Z,13.90
2018-05-12T08:06:15.081Z,14.20
2018-05-12T08:08:42.552Z,14.87
2018-05-12T08:11:10.019Z,13.52
2018-05-12T08:13:37.485Z,12.80
2018-05-12T08:16:04.934Z,12.82
2018-05-12T08:18:32.385Z,11.50
2018-05-12T08:21:00.608Z,11.60
2018-05-12T08:23:28.103Z,10.30
2018-05-12T08:25:55.555Z,10.43
2018-05-12T08:28:23.046Z,9.80
2018-05-12T08:30:50.872Z,10.43
2018-05-12T08:33:18.356Z,10.68
2018-05-12T08:35:45.820Z,11.10
2018-05-12T08:38:13.319Z,10.75
2018-05-12T08:40:40.843Z,10.48
2018-05-12T08:43:09.105Z,11.13
2018-05-12T08:45:36.670Z,10.50
2018-05-12T08:48:04.131Z,9.70
2018-05-12T08:50:31.680Z,9.50
2018-05-12T08:52:59.372Z,9.80
2018-05-12T08:55:27.177Z,7.30
2018-05-12T08:57:54.716Z,7.25
2018-05-12T09:00:22.215Z,7.68
2018-05-12T09:02:52.060Z,9.10
2018-05-12T09:05:20.283Z,8.60
2018-05-12T09:07:47.750Z,10.10
2018-05-12T09:10:15.233Z,9.07
2018-05-12T09:12:45.215Z,9.27
2018-05-12T09:15:14.994Z,9.10
2018-05-12T09:17:42.464Z,8.60
2018-05-12T09:20:10.080Z,9.00
2018-05-12T09:22:39.042Z,8.90
2018-05-12T09:25:06.501Z,9.23
2018-05-12T09:27:34.031Z,8.80
2018-05-12T09:30:01.487Z,7.73
2018-05-12T09:32:28.955Z,7.70
2018-05-12T09:34:56.427Z,7.47
2018-05-12T09:37:23.981Z,7.22
2018-05-12T09:39:51.460Z,7.25
2018-05-12T09:42:19.024Z,20.52
2018-05-12T09:44:46.434Z,8.45
2018-05-12T09:47:13.851Z,8.00
2018-05-12T09:49:41.361Z,10.55
2018-05-12T09:52:08.908Z,9.85
2018-05-12T09:54:36.369Z,7.93
2018-05-12T09:57:03.829Z,8.25
2018-05-12T09:59:31.353Z,9.35
2018-05-12T10:01:58.728Z,7.62
2018-05-12T10:04:26.942Z,7.10
2018-05-12T10:06:54.463Z,6.60
2018-05-12T10:09:21.927Z,7.30
2018-05-12T10:11:49.485Z,7.30
2018-05-12T10:14:16.960Z,6.53
2018-05-12T10:16:44.458Z,7.20
2018-05-12T10:19:11.995Z,9.57
2018-05-12T10:21:39.479Z,7.68
2018-05-12T10:24:06.974Z,6.80
2018-05-12T10:26:34.434Z,7.22
2018-05-12T10:29:01.998Z,8.20
2018-05-12T10:31:29.459Z,9.38
2018-05-12T10:33:56.931Z,11.65
2018-05-12T10:36:24.388Z,11.65
2018-05-12T10:38:51.923Z,12.07
2018-05-12T10:41:19.357Z,11.20
2018-05-12T10:43:46.822Z,32.70
2018-05-12T10:46:14.299Z,11.18
2018-05-12T10:48:41.778Z,41.37
2018-05-12T10:51:09.251Z,17.92
2018-05-12T10:53:36.803Z,9.45
2018-05-12T10:56:04.383Z,27.02
2018-05-12T10:58:31.832Z,6.90
2018-05-12T11:00:59.689Z,6.00
2018-05-12T11:03:27.128Z,5.78
2018-05-12T11:05:55.355Z,7.30
2018-05-12T11:08:22.866Z,6.05
2018-05-12T11:10:50.309Z,6.50
2018-05-12T11:13:17.766Z,6.22
2018-05-12T11:15:45.217Z,9.70
2018-05-12T11:18:12.663Z,7.50
2018-05-12T11:20:40.888Z,23.65
2018-05-12T11:23:08.352Z,10.48
2018-05-12T11:25:35.839Z,11.12
2018-05-12T11:28:03.403Z,10.65
2018-05-12T11:30:30.872Z,19.35
2018-05-12T11:32:58.346Z,10.00
2018-05-12T11:35:25.808Z,8.63
2018-05-12T11:37:53.350Z,8.57
2018-05-12T11:40:20.793Z,10.60
2018-05-12T11:42:49.072Z,8.70
2018-05-12T11:45:16.538Z,9.35
2018-05-12T11:47:44.112Z,8.48
2018-05-12T11:50:11.653Z,8.43
2018-05-12T11:52:39.043Z,27.02
2018-05-12T11:55:06.615Z,30.10
2018-05-12T11:57:34.074Z,14.87
2018-05-12T12:00:01.536Z,11.98
2018-05-12T12:02:29.094Z,16.70
2018-05-12T12:04:56.580Z,12.85
2018-05-12T12:07:24.040Z,9.50
2018-05-12T12:09:51.526Z,9.35
2018-05-12T12:12:18.997Z,13.73
2018-05-12T12:14:46.570Z,11.48
2018-05-12T12:17:14.044Z,16.67
2018-05-12T12:19:41.535Z,14.52
2018-05-12T12:22:09.086Z,20.40
2018-05-12T12:24:36.551Z,13.47
2018-05-12T12:27:04.041Z,5.50
2018-05-12T12:29:31.487Z,13.95
2018-05-12T12:31:58.966Z,5.65
2018-05-12T12:34:26.485Z,7.37
2018-05-12T12:36:53.942Z,7.10
2018-05-12T12:39:22.177Z,5.85
2018-05-12T12:41:49.632Z,6.35
2018-05-12T12:44:17.127Z,7.00
2018-05-12T12:46:44.763Z,7.60
2018-05-12T12:49:12.231Z,5.80
2018-05-12T12:51:39.792Z,5.65
2018-05-12T12:54:07.163Z,5.30
2018-05-12T12:56:34.686Z,6.10
2018-05-12T12:59:02.240Z,5.20
2018-05-12T13:01:29.707Z,6.00
2018-05-12T13:03:57.189Z,5.50
2018-05-12T13:06:24.658Z,5.70
2018-05-12T13:08:52.160Z,5.30
2018-05-12T13:11:19.637Z,5.30
2018-05-12T13:13:47.861Z,5.00
2018-05-12T13:16:15.344Z,5.15
2018-05-12T13:18:42.973Z,5.47
2018-05-12T13:21:11.322Z,5.00
2018-05-12T13:23:38.796Z,4.40
2018-05-12T13:26:06.236Z,5.20
2018-05-12T13:28:33.719Z,5.28
2018-05-12T13:31:01.177Z,4.90
2018-05-12T13:33:28.734Z,5.20
2018-05-12T13:35:56.128Z,4.87
2018-05-12T13:38:23.592Z,5.60
2018-05-12T13:40:51.075Z,5.68
2018-05-12T13:43:18.549Z,5.50
2018-05-12T13:45:46.060Z,5.22
2018-05-12T13:48:13.483Z,4.97
2018-05-12T13:50:40.962Z,5.37
2018-05-12T13:53:08.418Z,4.80
2018-05-12T13:55:35.875Z,5.50
2018-05-12T13:58:03.334Z,4.80
2018-05-12T14:00:30.785Z,5.72
2018-05-12T14:02:58.227Z,5.30
2018-05-12T14:05:25.698Z,5.45
2018-05-12T14:07:53.240Z,5.20
2018-05-12T14:10:20.714Z,5.13
2018-05-12T14:12:48.159Z,4.70
2018-05-12T14:15:15.646Z,5.00
2018-05-12T14:17:43.111Z,5.40
2018-05-12T14:20:10.576Z,5.10
2018-05-12T14:22:38.048Z,4.93
2018-05-12T14:25:05.498Z,4.72
2018-05-12T14:27:32.966Z,4.45
2018-05-12T14:30:00.430Z,5.25
2018-05-12T14:32:28.092Z,4.22
2018-05-12T14:34:56.323Z,4.50
2018-05-12T14:37:23.883Z,4.70
2018-05-12T14:39:51.336Z,5.07
2018-05-12T14:42:18.818Z,4.70
2018-05-12T14:44:46.285Z,24.75
2018-05-12T14:47:13.732Z,87.88
2018-05-12T14:49:41.202Z,14.85
2018-05-12T14:52:08.674Z,19.37
2018-05-12T14:54:36.116Z,4.90
2018-05-12T14:57:04.353Z,4.85
2018-05-12T14:59:31.827Z,4.80
2018-05-12T15:01:59.272Z,4.70
2018-05-12T15:04:26.720Z,8.23
2018-05-12T15:06:54.948Z,6.35
2018-05-12T15:09:22.420Z,5.35
2018-05-12T15:11:49.895Z,5.40
2018-05-12T15:14:17.381Z,4.78
2018-05-12T15:16:44.850Z,5.53
2018-05-12T15:19:12.304Z,5.47
2018-05-12T15:21:39.763Z,5.12
2018-05-12T15:24:07.208Z,6.22
2018-05-12T15:26:34.661Z,5.70
2018-05-12T15:29:02.880Z,6.95
2018-05-12T15:31:30.398Z,11.63
2018-05-12T15:33:57.960Z,12.32
2018-05-12T15:36:25.533Z,10.73
2018-05-12T15:38:53.127Z,9.40
2018-05-12T15:41:21.380Z,12.30
2018-05-12T15:43:48.881Z,9.80
2018-05-12T15:46:16.326Z,5.87
2018-05-12T15:48:43.780Z,5.17
2018-05-12T15:51:11.234Z,5.50
2018-05-12T15:53:38.687Z,10.33
2018-05-12T15:56:06.136Z,7.57
2018-05-12T15:58:34.358Z,8.90
2018-05-12T16:01:01.808Z,6.28
2018-05-12T16:03:29.274Z,5.10
2018-05-12T16:05:57.616Z,10.43
2018-05-12T16:08:25.181Z,4.80
2018-05-12T16:10:52.663Z,6.82
2018-05-12T16:13:20.139Z,10.60
2018-05-12T16:15:47.689Z,10.82
2018-05-12T16:18:15.157Z,64.57
2018-05-12T16:20:42.616Z,45.95
2018-05-12T16:23:10.104Z,31.98
2018-05-12T16:25:37.560Z,65.78
2018-05-12T16:28:05.032Z,14.77
2018-05-12T16:30:32.495Z,14.38
2018-05-12T16:32:59.962Z,12.43
2018-05-12T16:35:27.404Z,6.53
2018-05-12T16:37:55.650Z,6.10
2018-05-12T16:40:23.116Z,6.43
2018-05-12T16:42:50.567Z,7.80
2018-05-12T16:45:18.143Z,9.00
2018-05-12T16:47:45.634Z,6.62
2018-05-12T16:50:13.283Z,6.20
2018-05-12T16:52:40.670Z,6.43
2018-05-12T16:55:08.154Z,7.53
2018-05-12T16:57:35.634Z,6.07
2018-05-12T17:00:03.870Z,6.50
2018-05-12T17:02:31.369Z,5.80
2018-05-12T17:04:58.846Z,4.75
2018-05-12T17:07:26.318Z,6.25
2018-05-12T17:09:53.936Z,6.53
2018-05-12T17:12:22.210Z,6.43
2018-05-12T17:14:49.628Z,6.70
2018-05-12T17:17:17.080Z,7.18
2018-05-12T17:19:44.550Z,8.65
2018-05-12T17:22:12.039Z,7.20
2018-05-12T17:24:39.482Z,6.40
2018-05-12T17:27:06.943Z,6.90
2018-05-12T17:29:34.408Z,6.67
2018-05-12T17:32:01.948Z,6.60
2018-05-12T17:34:29.484Z,6.30
2018-05-12T17:36:56.953Z,6.63
2018-05-12T17:39:24.427Z,7.10
2018-05-12T17:41:51.924Z,7.10
2018-05-12T17:44:19.531Z,6.60
2018-05-12T17:46:47.032Z,8.10
2018-05-12T17:49:14.476Z,8.23
2018-05-12T17:51:41.947Z,7.12
2018-05-12T17:54:09.384Z,7.63
2018-05-12T17:56:36.940Z,7.90
2018-05-12T17:59:04.398Z,7.62
2018-05-12T18:01:31.856Z,8.50
2018-05-12T18:03:59.388Z,7.70
2018-05-12T18:09:20.715Z,8.00
2018-05-12T18:11:48.174Z,9.70
2018-05-12T18:14:15.736Z,10.40
2018-05-12T18:16:43.208Z,9.98
2018-05-12T18:19:10.667Z,10.60
2018-05-12T18:21:38.134Z,30.25
2018-05-12T18:24:05.631Z,15.87
2018-05-12T18:26:33.088Z,16.48
2018-05-12T18:29:00.570Z,11.60
2018-05-12T18:31:28.135Z,14.43
2018-05-12T18:33:55.607Z,13.38
2018-05-12T18:36:23.191Z,13.57
2018-05-12T18:38:50.758Z,13.27
2018-05-12T18:41:18.327Z,12.90
2018-05-12T18:43:45.780Z,12.32
2018-05-12T18:46:13.271Z,13.05
2018-05-12T18:48:40.834Z,14.35
2018-05-12T18:51:08.315Z,14.10
2018-05-12T18:53:36.494Z,12.60
2018-05-12T18:56:04.067Z,13.57
2018-05-12T18:58:31.620Z,14.27
2018-05-12T19:00:59.065Z,13.37
2018-05-12T19:03:26.561Z,15.93
2018-05-12T19:05:54.099Z,17.15
2018-05-12T19:08:21.649Z,16.50
2018-05-12T19:10:49.133Z,15.10
2018-05-12T19:13:17.379Z,16.30
2018-05-12T19:15:44.929Z,16.95
2018-05-12T19:18:12.407Z,17.40
2018-05-12T19:20:39.856Z,17.30
2018-05-12T19:23:07.316Z,16.80
2018-05-12T19:25:34.791Z,18.30
2018-05-12T19:28:02.247Z,16.98
2018-05-12T19:30:29.883Z,19.25
2018-05-12T19:32:57.359Z,16.90
2018-05-12T19:35:25.574Z,18.20
2018-05-12T19:37:53.093Z,17.85
2018-05-12T19:40:20.659Z,17.60
2018-05-12T19:42:48.183Z,24.30
2018-05-12T19:45:16.405Z,41.47
2018-05-12T19:47:43.943Z,27.20
2018-05-12T19:50:11.468Z,20.58
2018-05-12T19:52:38.932Z,20.70
2018-05-12T19:55:06.415Z,19.67
2018-05-12T19:57:35.390Z,20.12
2018-05-12T20:00:02.854Z,20.05
2018-05-12T20:02:30.337Z,20.60
2018-05-12T20:04:57.816Z,20.17
2018-05-12T20:07:25.278Z,21.30
2018-05-12T20:09:52.828Z,21.02
2018-05-12T20:12:22.003Z,22.08
2018-05-12T20:14:49.471Z,21.52
2018-05-12T20:17:17.706Z,21.90
2018-05-12T20:19:45.298Z,22.10
2018-05-12T20:22:12.855Z,21.93
2018-05-12T20:24:40.318Z,22.20
2018-05-12T20:27:07.796Z,22.27
2018-05-12T20:29:35.263Z,23.25
2018-05-12T20:32:02.716Z,25.20
2018-05-12T20:34:30.199Z,23.98
2018-05-12T20:36:57.669Z,24.80
2018-05-12T20:39:25.178Z,25.48
2018-05-12T20:41:52.628Z,25.98
2018-05-12T20:44:20.192Z,25.85
2018-05-12T20:46:47.780Z,25.30
2018-05-12T20:49:15.340Z,25.52
2018-05-12T20:51:42.798Z,24.70
2018-05-12T20:54:10.303Z,25.60
2018-05-12T20:56:37.763Z,27.23
2018-05-12T20:59:05.417Z,27.27
2018-05-12T21:01:32.896Z,27.08
2018-05-12T21:04:00.343Z,27.58
2018-05-12T21:06:27.846Z,27.45
2018-05-12T21:08:55.326Z,27.70
2018-05-12T21:11:22.803Z,29.55
2018-05-12T21:13:51.037Z,27.60
2018-05-12T21:16:18.545Z,28.60
2018-05-12T21:18:46.091Z,28.30
2018-05-12T21:21:13.591Z,28.00
2018-05-12T21:23:41.870Z,27.60
2018-05-12T21:26:09.300Z,28.70
2018-05-12T21:28:36.804Z,29.23
2018-05-12T21:31:04.251Z,29.65
2018-05-12T21:33:31.734Z,30.95
2018-05-12T21:35:59.199Z,30.00
2018-05-12T21:38:26.652Z,30.12
2018-05-12T21:40:54.134Z,28.50
2018-05-12T21:43:21.618Z,29.05
2018-05-12T21:45:49.084Z,29.02
2018-05-12T21:48:16.547Z,30.10
2018-05-12T21:50:44.012Z,30.92
2018-05-12T21:53:11.606Z,30.70
2018-05-12T21:55:39.068Z,30.23
2018-05-12T21:58:06.632Z,31.60
2018-05-12T22:00:34.109Z,30.73
2018-05-12T22:03:01.568Z,30.45
2018-05-12T22:05:29.031Z,31.47
2018-05-12T22:07:57.391Z,31.10
2018-05-12T22:10:24.893Z,31.10
2018-05-12T22:12:52.348Z,31.23
2018-05-12T22:15:19.834Z,30.48
2018-05-12T22:17:47.280Z,31.27
2018-05-12T22:20:14.733Z,32.00
2018-05-12T22:22:42.202Z,30.80
2018-05-12T22:25:09.732Z,32.00
2018-05-12T22:27:37.188Z,32.15
2018-05-12T22:30:04.662Z,31.80
2018-05-12T22:32:32.114Z,31.80
2018-05-12T22:34:59.573Z,32.42
2018-05-12T22:37:27.042Z,33.33
2018-05-12T22:39:54.531Z,31.90
2018-05-12T22:42:21.997Z,32.28
2018-05-12T22:44:49.455Z,32.90
2018-05-12T22:47:17.055Z,33.08
2018-05-12T22:49:45.201Z,33.25
2018-05-12T22:52:12.706Z,32.67
2018-05-12T22:54:40.283Z,33.70
2018-05-12T22:57:07.753Z,33.70
2018-05-12T22:59:35.330Z,35.22
2018-05-12T23:02:02.826Z,32.35
2018-05-12T23:04:31.062Z,34.92
2018-05-12T23:06:58.555Z,34.22
2018-05-12T23:09:26.108Z,35.00
2018-05-12T23:11:53.573Z,34.35
2018-05-12T23:14:21.050Z,34.53
2018-05-12T23:16:48.510Z,33.83
2018-05-12T23:19:15.984Z,33.50
2018-05-12T23:21:43.440Z,35.25
2018-05-12T23:24:10.901Z,35.10
2018-05-12T23:26:38.377Z,35.83
2018-05-12T23:29:05.832Z,35.28
2018-05-12T23:31:33.374Z,34.83
2018-05-12T23:34:00.904Z,35.90
2018-05-12T23:36:28.476Z,35.55
2018-05-12T23:38:55.942Z,35.08
2018-05-12T23:41:23.434Z,35.67
2018-05-12T23:43:50.984Z,35.67
2018-05-12T23:46:18.443Z,34.53
2018-05-12T23:48:45.955Z,35.38
2018-05-12T23:51:13.563Z,34.28
2018-05-12T23:53:40.982Z,35.28
2018-05-12T23:56:08.543Z,35.63
2018-05-12T23:58:36.008Z,35.65
